Time;durP1;ratioP1;P1;durP2;ratioP2;P2;SDS_P1;SDS_P2;PMS_P1;PMS_P2;Temp;Humidity;BMP_temperature;BMP_pressure;BME280_temperature;BME280_humidity;BME280_pressure;Samples;Min_cycle;Max_cycle;Signal;HPM_P1;HPM_P2
2023/05/26 00:01:53;;;;;;;11.5;8.7;;;;;;;13.66;94.58984;942.7224;;;;
2023/05/26 00:04:18;;;;;;;10.4;9;;;;;;;13.63;94.99609;942.6869;;;;
2023/05/26 00:06:46;;;;;;;10.5;8.4;;;;;;;13.39;96.18457;942.7483;;;;
2023/05/26 00:09:10;;;;;;;9.3;8.3;;;;;;;13.31;96.98438;942.7206;;;;
2023/05/26 00:11:39;;;;;;;9.8;8.6;;;;;;;13.38;96.50586;942.733;;;;
2023/05/26 00:14:04;;;;;;;12.8;8.7;;;;;;;13.49;95.81543;942.7531;;;;
2023/05/26 00:16:34;;;;;;;10.9;8.6;;;;;;;13.58;95.24902;942.7383;;;;
2023/05/26 00:19:05;;;;;;;9.7;8.7;;;;;;;13.59;94.56055;942.7808;;;;
2023/05/26 00:21:28;;;;;;;12;8.6;;;;;;;13.5;94.54297;942.6596;;;;
2023/05/26 00:23:54;;;;;;;9.3;8.3;;;;;;;13.59;94.26172;942.7408;;;;
2023/05/26 00:26:21;;;;;;;11.3;9.2;;;;;;;13.64;94.13574;942.7342;;;;
2023/05/26 00:28:52;;;;;;;10.6;9.1;;;;;;;13.61;94.15234;942.6961;;;;
2023/05/26 00:31:23;;;;;;;9.7;8.7;;;;;;;13.63;94.19141;942.663;;;;
2023/05/26 00:33:48;;;;;;;9.6;8.5;;;;;;;13.59;94.06641;942.5945;;;;
2023/05/26 00:36:13;;;;;;;10.3;8.6;;;;;;;13.54;93.95313;942.6094;;;;
2023/05/26 00:38:43;;;;;;;8.9;8;;;;;;;13.42;94.43359;942.6272;;;;
2023/05/26 00:41:11;;;;;;;12.1;8.6;;;;;;;13.23;95.65625;942.6506;;;;
2023/05/26 00:43:36;;;;;;;10.8;8.3;;;;;;;13.17;96.26465;942.6656;;;;
2023/05/26 00:46:06;;;;;;;10.7;8.2;;;;;;;13.17;96.19336;942.6064;;;;
2023/05/26 00:48:31;;;;;;;9.1;8.2;;;;;;;13.2;96.17871;942.5285;;;;
2023/05/26 00:51:11;;;;;;;10.1;7.6;;;;;;;13.23;95.61035;942.549;;;;
2023/05/26 00:53:36;;;;;;;10.1;7.8;;;;;;;13.33;94.19531;942.5839;;;;
2023/05/26 00:56:01;;;;;;;8.7;7.8;;;;;;;13.33;94.10352;942.5552;;;;
2023/05/26 00:58:26;;;;;;;9.8;7.7;;;;;;;13.37;93.83789;942.545;;;;
2023/05/26 01:00:53;;;;;;;9.1;8.1;;;;;;;13.34;93.96777;942.4961;;;;
2023/05/26 01:03:18;;;;;;;8.7;7.8;;;;;;;13.34;93.73828;942.4777;;;;
2023/05/26 01:05:44;;;;;;;9.2;8.2;;;;;;;13.24;94.08398;942.5506;;;;
2023/05/26 01:08:09;;;;;;;9.2;8.3;;;;;;;13.1;94.54688;942.4492;;;;
2023/05/26 01:10:37;;;;;;;10.6;8.9;;;;;;;13.06;94.44531;942.5369;;;;
2023/05/26 01:13:02;;;;;;;10.2;8.3;;;;;;;13.04;94.61523;942.5608;;;;
2023/05/26 01:16:13;;;;;;;9.8;8.3;;;;;;;13.06;93.79102;942.4953;;;;
2023/05/26 01:18:40;;;;;;;11.2;8.7;;;;;;;13.08;94.40527;942.5298;;;;
2023/05/26 01:21:05;;;;;;;10.1;9;;;;;;;13.08;94.27832;942.5186;;;;
2023/05/26 01:23:28;;;;;;;10.4;8.7;;;;;;;13.13;94.03809;942.5222;;;;
2023/05/26 01:25:56;;;;;;;9.3;8.4;;;;;;;13.06;94.22656;942.5633;;;;
2023/05/26 01:28:19;;;;;;;9.4;7.9;;;;;;;13.1;93.38672;942.5436;;;;
2023/05/26 01:30:46;;;;;;;10.2;8.8;;;;;;;13.06;93.02148;942.4938;;;;
2023/05/26 01:33:11;;;;;;;9.5;8.2;;;;;;;12.99;92.99414;942.5873;;;;
2023/05/26 01:35:37;;;;;;;10.7;8.4;;;;;;;12.99;92.68457;942.5474;;;;
2023/05/26 01:40:27;;;;;;;9;8.1;;;;;;;12.8;93.55273;942.5903;;;;
2023/05/26 01:42:55;;;;;;;10.1;9;;;;;;;12.81;94.91992;942.5481;;;;
2023/05/26 01:45:21;;;;;;;10.1;8.8;;;;;;;12.84;94.77734;942.6845;;;;
2023/05/26 01:47:47;;;;;;;12.1;9.3;;;;;;;12.8;95.00977;942.6479;;;;
2023/05/26 01:50:14;;;;;;;8.7;7.9;;;;;;;12.78;94.91406;942.675;;;;
2023/05/26 01:52:40;;;;;;;9.9;8.4;;;;;;;12.76;94.79395;942.6013;;;;
2023/05/26 01:55:11;;;;;;;9.1;8.1;;;;;;;12.7;94.91992;942.6655;;;;
2023/05/26 01:57:41;;;;;;;10.4;8.2;;;;;;;12.7;94.69043;942.6263;;;;
2023/05/26 02:00:17;;;;;;;10;8.2;;;;;;;12.68;94.75488;942.6886;;;;
2023/05/26 02:02:45;;;;;;;10;8.4;;;;;;;12.67;94.52344;942.7115;;;;
2023/05/26 02:05:10;;;;;;;9.4;8.4;;;;;;;12.45;95.59863;942.6918;;;;
2023/05/26 02:08:17;;;;;;;8.7;7.8;;;;;;;12.44;95.6416;942.7612;;;;
2023/05/26 02:10:44;;;;;;;8.8;7.9;;;;;;;12.44;95.87305;942.7149;;;;
2023/05/26 02:13:11;;;;;;;10.2;8.5;;;;;;;12.45;95.31348;942.6599;;;;
2023/05/26 02:15:36;;;;;;;9.1;7.5;;;;;;;12.4;95.11816;942.6216;;;;
2023/05/26 02:18:04;;;;;;;10.4;8.4;;;;;;;12.19;96.06738;942.6344;;;;
2023/05/26 02:20:29;;;;;;;13.8;9.2;;;;;;;12.05;97.90527;942.7303;;;;
2023/05/26 02:22:56;;;;;;;9.5;7.8;;;;;;;12.16;97.07031;942.7203;;;;
2023/05/26 02:25:21;;;;;;;9;7.9;;;;;;;12.21;96.58984;942.6833;;;;
2023/05/26 02:27:49;;;;;;;9.5;8.4;;;;;;;12.17;96.69434;942.7195;;;;
2023/05/26 02:30:16;;;;;;;8.8;7.9;;;;;;;12.1;97.2627;942.6965;;;;
2023/05/26 02:32:45;;;;;;;10.1;8.1;;;;;;;12.04;97.78906;942.7159;;;;
2023/05/26 02:35:10;;;;;;;8.6;7.6;;;;;;;12.13;97.22461;942.6833;;;;
2023/05/26 02:37:41;;;;;;;8.6;7.7;;;;;;;12.18;96.68457;942.679;;;;
2023/05/26 02:40:04;;;;;;;11.9;8.4;;;;;;;12.1;96.81543;942.6725;;;;
2023/05/26 02:42:34;;;;;;;9.1;8.2;;;;;;;12.13;96.89258;942.5452;;;;
2023/05/26 02:45:01;;;;;;;9.2;8.1;;;;;;;12.19;97.24805;942.6559;;;;
2023/05/26 02:47:26;;;;;;;8.6;7.7;;;;;;;12.34;96.2627;942.6674;;;;
2023/05/26 02:49:54;;;;;;;11;8.2;;;;;;;12.36;96.23145;942.6906;;;;
2023/05/26 02:52:21;;;;;;;8.5;7.6;;;;;;;12.37;96.15332;942.6876;;;;
2023/05/26 02:54:47;;;;;;;9.1;8.1;;;;;;;12.44;95.81445;942.7228;;;;
2023/05/26 02:57:12;;;;;;;10.1;8.2;;;;;;;12.52;95.52246;942.7308;;;;
2023/05/26 02:59:37;;;;;;;10.7;8.5;;;;;;;12.52;95.30469;942.734;;;;
2023/05/26 03:02:02;;;;;;;11.8;8.4;;;;;;;12.47;95.77637;942.6649;;;;
2023/05/26 03:04:31;;;;;;;9.9;7.7;;;;;;;12.55;95.90723;942.6775;;;;
2023/05/26 03:06:56;;;;;;;8.3;7.5;;;;;;;12.6;95.34277;942.7275;;;;
2023/05/26 03:09:25;;;;;;;9.1;7.6;;;;;;;12.51;95.82813;942.785;;;;
2023/05/26 03:11:50;;;;;;;9.1;8.1;;;;;;;12.61;95.39063;942.73;;;;
2023/05/26 03:14:15;;;;;;;9.7;8.1;;;;;;;12.63;95.39746;942.7401;;;;
2023/05/26 03:16:40;;;;;;;9.5;7.8;;;;;;;12.6;95.67773;942.7355;;;;
2023/05/26 03:19:05;;;;;;;9;7.5;;;;;;;12.69;95.44336;942.7302;;;;
2023/05/26 03:21:32;;;;;;;9.6;7.9;;;;;;;12.55;96.14746;942.6926;;;;
2023/05/26 03:23:56;;;;;;;9;8.1;;;;;;;12.47;96.56543;942.7119;;;;
2023/05/26 03:26:25;;;;;;;9;8.1;;;;;;;12.35;97.28516;942.7425;;;;
2023/05/26 03:28:49;;;;;;;10.7;8.1;;;;;;;12.33;97.41797;942.7143;;;;
2023/05/26 03:31:44;;;;;;;9.5;7.7;;;;;;;12.39;97.29492;942.7556;;;;
2023/05/26 03:34:09;;;;;;;10.8;9;;;;;;;12.51;97.16016;942.698;;;;
2023/05/26 03:36:38;;;;;;;10.5;7.8;;;;;;;12.67;96.76074;942.7852;;;;
2023/05/26 03:39:04;;;;;;;9.6;7.6;;;;;;;12.73;95.7627;942.7952;;;;
2023/05/26 03:41:29;;;;;;;13.5;7.8;;;;;;;12.79;94.93945;942.7101;;;;
2023/05/26 03:44:00;;;;;;;9.7;7.7;;;;;;;12.57;96.29102;942.8119;;;;
2023/05/26 03:46:25;;;;;;;11.6;7.9;;;;;;;12.65;96.12402;942.8089;;;;
2023/05/26 03:48:52;;;;;;;8.8;7.4;;;;;;;12.83;95.23438;942.8027;;;;
2023/05/26 03:51:17;;;;;;;9.7;7.7;;;;;;;12.86;94.59863;942.8406;;;;
2023/05/26 03:53:44;;;;;;;7.6;6.8;;;;;;;12.82;95.11719;942.8154;;;;
2023/05/26 03:56:09;;;;;;;8.4;7.2;;;;;;;12.91;94.87109;942.7985;;;;
2023/05/26 03:58:35;;;;;;;8.2;7.2;;;;;;;12.82;95.48438;942.7562;;;;
2023/05/26 04:02:43;;;;;;;8.7;7.3;;;;;;;12.66;96.22949;942.7491;;;;
2023/05/26 04:05:07;;;;;;;8.1;7;;;;;;;12.49;96.82422;942.7202;;;;
2023/05/26 04:07:37;;;;;;;7.8;6.9;;;;;;;12.47;97.5293;942.692;;;;
2023/05/26 04:10:05;;;;;;;9.1;7.2;;;;;;;12.57;97.2666;942.6194;;;;
2023/05/26 04:12:29;;;;;;;9.1;7.5;;;;;;;12.71;96.91602;942.7207;;;;
2023/05/26 04:14:56;;;;;;;14;7.7;;;;;;;12.84;96.2002;942.7764;;;;
2023/05/26 04:17:21;;;;;;;10.2;7.8;;;;;;;12.77;96.7373;942.7237;;;;
2023/05/26 04:19:51;;;;;;;9.1;7.6;;;;;;;12.75;97.29297;942.7338;;;;
2023/05/26 04:22:16;;;;;;;8.5;6.9;;;;;;;12.9;97.12109;942.7537;;;;
2023/05/26 04:24:43;;;;;;;8.3;7.4;;;;;;;12.86;96.36523;942.739;;;;
2023/05/26 04:27:09;;;;;;;9.4;7.4;;;;;;;12.71;97.81348;942.7966;;;;
2023/05/26 04:29:33;;;;;;;8.4;7.4;;;;;;;12.83;97.54102;942.7428;;;;
2023/05/26 04:32:03;;;;;;;9.1;7.4;;;;;;;13;96.69727;942.7353;;;;
2023/05/26 04:34:28;;;;;;;8.5;7.6;;;;;;;13.15;96.06152;942.7317;;;;
2023/05/26 04:37:03;;;;;;;9;7.8;;;;;;;13.33;96.12598;942.7344;;;;
2023/05/26 04:39:22;;;;;;;10.1;7.4;;;;;;;13.39;94.96582;942.6867;;;;
2023/05/26 04:41:48;;;;;;;9.4;7.6;;;;;;;13.34;94.87598;942.7496;;;;
2023/05/26 04:44:18;;;;;;;10.8;7.7;;;;;;;13.49;95.6084;942.7555;;;;
2023/05/26 04:46:41;;;;;;;10.2;8;;;;;;;13.61;94.98047;942.7914;;;;
2023/05/26 04:49:09;;;;;;;8;7.1;;;;;;;13.58;93.69824;942.7336;;;;
2023/05/26 04:51:35;;;;;;;8.2;6.9;;;;;;;13.48;93.85938;942.7083;;;;
2023/05/26 04:54:03;;;;;;;9.9;7.2;;;;;;;13.64;93.44531;942.6965;;;;
2023/05/26 04:56:29;;;;;;;8.9;7.4;;;;;;;13.34;94.74707;942.6904;;;;
2023/05/26 05:03:21;;;;;;;11.4;8.5;;;;;;;13.14;95.64746;942.7094;;;;
2023/05/26 05:05:47;;;;;;;10.7;8.6;;;;;;;13.2;96.09863;942.7068;;;;
2023/05/26 05:08:12;;;;;;;12.4;8.4;;;;;;;13.39;95.83008;942.649;;;;
2023/05/26 05:10:41;;;;;;;9.3;7.9;;;;;;;13.48;95.03125;942.6683;;;;
2023/05/26 05:13:07;;;;;;;10.3;7.8;;;;;;;13.73;94.27051;942.6033;;;;
2023/05/26 05:15:35;;;;;;;7.8;6.9;;;;;;;13.84;94.50293;942.7026;;;;
2023/05/26 05:18:02;;;;;;;9;7.5;;;;;;;14.02;94.52832;942.7035;;;;
2023/05/26 05:20:25;;;;;;;9.8;7.4;;;;;;;14.19;93.73438;942.728;;;;
2023/05/26 05:22:53;;;;;;;9.3;7.5;;;;;;;14.33;92.86719;942.7319;;;;
2023/05/26 05:25:18;;;;;;;8.5;7.3;;;;;;;14.17;92.04004;942.7736;;;;
2023/05/26 05:27:47;;;;;;;7.6;6.8;;;;;;;14.27;91.49707;942.7862;;;;
2023/05/26 05:30:14;;;;;;;8.6;7.2;;;;;;;14.39;91.66895;942.7054;;;;
2023/05/26 05:32:37;;;;;;;8.1;7.3;;;;;;;14.38;91.18555;942.6887;;;;
2023/05/26 05:35:05;;;;;;;8.3;7.3;;;;;;;14.53;91.11426;942.7552;;;;
2023/05/26 05:37:30;;;;;;;9;7.5;;;;;;;14.48;90.61816;942.7712;;;;
2023/05/26 05:39:55;;;;;;;8.6;7.4;;;;;;;14.56;90.6582;942.7809;;;;
2023/05/26 05:42:32;;;;;;;9;7.2;;;;;;;14.64;90.52344;942.7813;;;;
2023/05/26 05:45:00;;;;;;;7.5;6.7;;;;;;;14.63;90.37402;942.8053;;;;
2023/05/26 05:47:26;;;;;;;8.9;6.6;;;;;;;14.71;90.23926;942.795;;;;
2023/05/26 05:49:53;;;;;;;7.4;6.5;;;;;;;14.67;90.4834;942.827;;;;
2023/05/26 05:52:18;;;;;;;7.7;6.6;;;;;;;14.42;91.56348;942.8445;;;;
2023/05/26 05:54:46;;;;;;;9.9;7.7;;;;;;;14.67;91.11719;942.8174;;;;
2023/05/26 05:57:11;;;;;;;12.9;6.6;;;;;;;14.75;90.5957;942.8006;;;;
2023/05/26 05:59:37;;;;;;;9.1;6.5;;;;;;;14.67;90.63281;942.7742;;;;
2023/05/26 06:02:03;;;;;;;8.9;6.7;;;;;;;14.64;91.09961;942.7477;;;;
2023/05/26 06:04:31;;;;;;;9;6.4;;;;;;;14.58;91.43457;942.8186;;;;
2023/05/26 06:06:56;;;;;;;9.3;6.9;;;;;;;14.64;91.02148;942.8334;;;;
2023/05/26 06:09:24;;;;;;;11.8;7.9;;;;;;;14.88;90.92188;942.825;;;;
2023/05/26 06:11:49;;;;;;;7.8;6.7;;;;;;;14.99;90.06836;942.8443;;;;
2023/05/26 06:14:38;;;;;;;7.9;6.5;;;;;;;15.06;90.42871;942.8333;;;;
2023/05/26 06:16:48;;;;;;;7.6;6.2;;;;;;;15.03;89.33691;942.8166;;;;
2023/05/26 06:19:15;;;;;;;8.1;6.5;;;;;;;14.97;90.4541;942.8074;;;;
2023/05/26 06:21:41;;;;;;;7;6.1;;;;;;;15.28;92.35547;942.8607;;;;
2023/05/26 06:24:10;;;;;;;9.6;6.8;;;;;;;15.48;94.4873;942.7908;;;;
2023/05/26 06:26:34;;;;;;;6.4;5.7;;;;;;;15.52;89.6123;942.8758;;;;
2023/05/26 06:29:02;;;;;;;7.3;5.6;;;;;;;15.66;89.36035;942.8552;;;;
2023/05/26 06:31:28;;;;;;;10.9;6.3;;;;;;;15.74;88.14063;942.8526;;;;
2023/05/26 06:33:54;;;;;;;7.1;6.4;;;;;;;15.73;88.4043;942.8527;;;;
2023/05/26 06:36:20;;;;;;;7.9;6.3;;;;;;;15.79;87.85156;942.9055;;;;
2023/05/26 06:38:49;;;;;;;7.3;5.9;;;;;;;15.92;86.81445;942.8578;;;;
2023/05/26 06:41:18;;;;;;;10.6;6.9;;;;;;;15.77;86.61133;942.9448;;;;
2023/05/26 06:43:43;;;;;;;7.6;6.2;;;;;;;15.79;86.31445;942.9503;;;;
2023/05/26 06:46:09;;;;;;;8.9;6.9;;;;;;;15.94;86.66797;942.9092;;;;
2023/05/26 06:48:34;;;;;;;8.3;6;;;;;;;16.02;85.3877;942.877;;;;
2023/05/26 06:51:02;;;;;;;7;5.9;;;;;;;16;85.52441;942.8912;;;;
2023/05/26 06:53:27;;;;;;;8.4;6.3;;;;;;;16.21;84.35059;942.9758;;;;
2023/05/26 06:55:53;;;;;;;8.7;5.9;;;;;;;16.22;84.49121;942.9866;;;;
2023/05/26 06:58:18;;;;;;;8.1;6;;;;;;;16.45;82.96094;942.9615;;;;
2023/05/26 07:00:45;;;;;;;15.7;6.2;;;;;;;16.73;82.39941;943.0062;;;;
2023/05/26 07:03:10;;;;;;;7.8;5.6;;;;;;;17.02;81.68945;943.002;;;;
2023/05/26 07:05:37;;;;;;;6.3;5.7;;;;;;;17.35;79.64063;942.9693;;;;
2023/05/26 07:08:03;;;;;;;6.1;5.5;;;;;;;17.58;78.54395;942.9327;;;;
2023/05/26 07:10:29;;;;;;;6.9;5.6;;;;;;;17.87;76.22852;942.8934;;;;
2023/05/26 07:12:54;;;;;;;5.8;5.2;;;;;;;18.22;74.51172;942.9101;;;;
2023/05/26 07:15:24;;;;;;;7.2;5.5;;;;;;;17.69;75.92871;942.9162;;;;
2023/05/26 07:17:56;;;;;;;6.8;5.5;;;;;;;17.99;75.22656;942.9252;;;;
2023/05/26 07:20:25;;;;;;;5.8;5.2;;;;;;;18.08;74.88086;942.9501;;;;
2023/05/26 07:22:50;;;;;;;6;4.9;;;;;;;18.36;73.93066;942.9316;;;;
2023/05/26 07:25:19;;;;;;;6.6;5.2;;;;;;;18.39;73.91309;942.9046;;;;
2023/05/26 07:27:49;;;;;;;6.5;5.8;;;;;;;18.73;72.36328;942.9356;;;;
2023/05/26 07:30:15;;;;;;;5.2;4.7;;;;;;;18.94;71.76953;942.9207;;;;
2023/05/26 07:32:41;;;;;;;5.8;5.2;;;;;;;19.14;72.96582;942.9379;;;;
2023/05/26 07:35:06;;;;;;;6.9;4.9;;;;;;;19.21;69.9834;942.8691;;;;
2023/05/26 07:37:35;;;;;;;6.2;5.1;;;;;;;19.34;71.60254;942.8599;;;;
2023/05/26 07:40:00;;;;;;;6.3;5.1;;;;;;;19.41;71.42578;942.8983;;;;
2023/05/26 07:42:25;;;;;;;8.8;5.3;;;;;;;19.35;70.37891;942.8879;;;;
2023/05/26 07:44:56;;;;;;;6.8;5.4;;;;;;;19.32;70.12988;942.9006;;;;
2023/05/26 07:47:21;;;;;;;7.2;5.1;;;;;;;19.27;73.04688;942.9071;;;;
2023/05/26 07:49:48;;;;;;;7.1;4.9;;;;;;;19.02;70.90918;942.8801;;;;
2023/05/26 07:52:13;;;;;;;6;5.2;;;;;;;19.29;71.80371;942.9398;;;;
2023/05/26 07:54:41;;;;;;;5.9;5.2;;;;;;;19.2;71.91699;942.9079;;;;
2023/05/26 07:57:07;;;;;;;6.6;5.2;;;;;;;19.09;72.39941;942.8459;;;;
2023/05/26 07:59:35;;;;;;;8;5.4;;;;;;;19.18;72.77539;942.8928;;;;
2023/05/26 08:02:00;;;;;;;8.4;5.4;;;;;;;19.35;72.74414;942.8961;;;;
2023/05/26 08:04:27;;;;;;;6.7;5.7;;;;;;;19.46;72.69336;942.9114;;;;
2023/05/26 08:06:52;;;;;;;5.8;5.2;;;;;;;18.91;73.89453;942.9348;;;;
2023/05/26 08:09:18;;;;;;;6.3;5.6;;;;;;;19.02;75.63477;942.976;;;;
2023/05/26 08:11:43;;;;;;;7.4;6.5;;;;;;;19.12;75.15234;942.9714;;;;
2023/05/26 08:14:15;;;;;;;7.5;6.6;;;;;;;18.58;77.71191;943.0355;;;;
2023/05/26 08:16:39;;;;;;;7.8;6.5;;;;;;;18.92;76.1875;943.0089;;;;
2023/05/26 08:19:06;;;;;;;9.1;7.3;;;;;;;18.76;77.01074;943.0158;;;;
2023/05/26 08:21:36;;;;;;;7.4;6.7;;;;;;;19.08;74.8418;943.0237;;;;
2023/05/26 08:24:01;;;;;;;9.8;6.6;;;;;;;19.06;77.08594;942.9377;;;;
2023/05/26 08:26:26;;;;;;;7.9;6.7;;;;;;;18.99;77.1084;943.0005;;;;
2023/05/26 08:28:51;;;;;;;9.8;6.7;;;;;;;18.83;77.75586;942.9892;;;;
2023/05/26 08:31:18;;;;;;;10.2;6.3;;;;;;;18.94;77.84473;942.8633;;;;
2023/05/26 08:33:49;;;;;;;8.1;6.8;;;;;;;19.04;78.27051;942.98;;;;
2023/05/26 08:36:15;;;;;;;6.9;6.2;;;;;;;19.4;74.74512;942.9534;;;;
2023/05/26 08:38:41;;;;;;;7;6;;;;;;;19.53;74.51172;942.881;;;;
2023/05/26 08:41:07;;;;;;;8;6.6;;;;;;;19.22;73.48047;942.9515;;;;
2023/05/26 08:43:41;;;;;;;7.4;6.7;;;;;;;19.56;72.36035;942.8921;;;;
2023/05/26 08:46:05;;;;;;;9.2;7.1;;;;;;;19.56;74.41016;942.8914;;;;
2023/05/26 08:48:30;;;;;;;8.5;6.8;;;;;;;19.58;74.54297;942.8958;;;;
2023/05/26 08:50:56;;;;;;;8.8;7.1;;;;;;;19.03;76.10352;942.8719;;;;
2023/05/26 08:53:23;;;;;;;9;7;;;;;;;19.38;76.78027;942.8979;;;;
2023/05/26 08:55:51;;;;;;;10.6;7;;;;;;;19.71;74.83203;942.8825;;;;
2023/05/26 08:58:22;;;;;;;9;7.1;;;;;;;19.74;74.8252;942.8513;;;;
2023/05/26 09:00:50;;;;;;;7.6;6.8;;;;;;;19.78;73.27051;942.8496;;;;
2023/05/26 09:03:15;;;;;;;7.4;6.5;;;;;;;19.68;74.4082;942.8644;;;;
2023/05/26 09:05:43;;;;;;;7.9;6.6;;;;;;;19.6;76.70215;942.8235;;;;
2023/05/26 09:08:12;;;;;;;7.4;6.3;;;;;;;19.82;74.11719;942.8158;;;;
2023/05/26 09:10:34;;;;;;;7.7;6.4;;;;;;;19.95;74.52344;942.7489;;;;
2023/05/26 09:13:01;;;;;;;6.6;5.8;;;;;;;20.18;70.53613;942.8222;;;;
2023/05/26 09:15:27;;;;;;;7;6.3;;;;;;;20.03;74.10547;942.7703;;;;
2023/05/26 09:17:52;;;;;;;7.4;6.3;;;;;;;19.72;72.57227;942.8128;;;;
2023/05/26 09:20:17;;;;;;;7.2;6.1;;;;;;;20.11;73.93262;942.835;;;;
2023/05/26 09:22:44;;;;;;;8;6.2;;;;;;;20.17;71.33789;942.8145;;;;
2023/05/26 09:25:09;;;;;;;7.3;6.2;;;;;;;19.89;73.80176;942.8116;;;;
2023/05/26 09:27:37;;;;;;;9.8;6.2;;;;;;;20;72.96777;942.8022;;;;
2023/05/26 09:30:02;;;;;;;7.1;5.9;;;;;;;19.72;71.60449;942.8137;;;;
2023/05/26 09:32:30;;;;;;;7;5.7;;;;;;;20.31;70.95215;942.8547;;;;
2023/05/26 09:34:55;;;;;;;7;5.3;;;;;;;20.75;67.14258;942.8461;;;;
2023/05/26 09:37:23;;;;;;;5.5;4.9;;;;;;;21.14;66.38281;942.8943;;;;
2023/05/26 09:39:48;;;;;;;6.9;5.5;;;;;;;21.34;64.5752;942.8917;;;;
2023/05/26 09:42:19;;;;;;;6.5;5;;;;;;;20.88;64.90723;942.8741;;;;
2023/05/26 09:44:44;;;;;;;6.5;5.7;;;;;;;20.9;65.4707;942.8608;;;;
2023/05/26 09:47:12;;;;;;;5.7;5.1;;;;;;;22.24;66.6416;942.8234;;;;
2023/05/26 09:49:37;;;;;;;7.2;5.1;;;;;;;23.76;58.92676;942.7932;;;;
2023/05/26 09:52:04;;;;;;;7.3;4.6;;;;;;;23.86;58.18652;942.8258;;;;
2023/05/26 09:54:29;;;;;;;6.1;5;;;;;;;24.03;56.80957;942.8825;;;;
2023/05/26 09:56:58;;;;;;;6;5;;;;;;;24.85;56.33496;942.8408;;;;
2023/05/26 09:59:26;;;;;;;6.5;4.7;;;;;;;24.3;55.39355;942.7459;;;;
2023/05/26 10:01:52;;;;;;;4.6;3.8;;;;;;;25.34;52.99512;942.8395;;;;
2023/05/26 10:04:19;;;;;;;7.4;4.2;;;;;;;26.15;49.93359;942.7986;;;;
2023/05/26 10:06:44;;;;;;;4.9;4.4;;;;;;;25.27;53.47266;942.8448;;;;
2023/05/26 10:09:09;;;;;;;4.7;4.2;;;;;;;25.64;53.9541;942.7495;;;;
2023/05/26 10:11:34;;;;;;;4.5;4.1;;;;;;;24.06;55.3291;942.7489;;;;
2023/05/26 10:13:59;;;;;;;5.3;4.7;;;;;;;23.86;56.54004;942.6727;;;;
2023/05/26 10:16:28;;;;;;;3.9;3.6;;;;;;;23.7;55.70801;942.625;;;;
2023/05/26 10:18:53;;;;;;;4.9;3.9;;;;;;;23.87;54.94043;942.6755;;;;
2023/05/26 10:21:21;;;;;;;4.7;4.2;;;;;;;23.58;54.16406;942.6281;;;;
2023/05/26 10:23:46;;;;;;;6.5;3.7;;;;;;;24.6;57.34082;942.6651;;;;
2023/05/26 10:26:11;;;;;;;3.7;3.3;;;;;;;25.08;53.44922;942.6296;;;;
2023/05/26 10:28:36;;;;;;;5.5;3.6;;;;;;;25.21;54.29102;942.6512;;;;
2023/05/26 10:31:01;;;;;;;4.8;3.5;;;;;;;25.99;50.38867;942.6594;;;;
2023/05/26 10:33:28;;;;;;;4;3.6;;;;;;;26.62;47.31055;942.5292;;;;
2023/05/26 10:35:53;;;;;;;3.9;3.4;;;;;;;27.09;46.79102;942.5339;;;;
2023/05/26 10:38:21;;;;;;;4;3.6;;;;;;;25.93;49.1416;942.5734;;;;
2023/05/26 10:40:47;;;;;;;5.6;3.5;;;;;;;25.6;51.18457;942.4871;;;;
2023/05/26 10:43:12;;;;;;;3.8;3.4;;;;;;;24.97;52.5166;942.4628;;;;
2023/05/26 10:45:37;;;;;;;3.4;3.1;;;;;;;25.59;49.56348;942.4509;;;;
2023/05/26 10:48:02;;;;;;;3.7;3.4;;;;;;;26.02;46.41895;942.4009;;;;
2023/05/26 10:50:33;;;;;;;4.1;3.3;;;;;;;26.23;48.70117;942.3339;;;;
2023/05/26 10:53:01;;;;;;;4.1;3.4;;;;;;;26.34;47.95508;942.3137;;;;
2023/05/26 10:55:27;;;;;;;5;3.8;;;;;;;26.53;47.32324;942.2942;;;;
2023/05/26 10:57:52;;;;;;;4.3;3.7;;;;;;;26.2;48.4248;942.2366;;;;
2023/05/26 11:00:17;;;;;;;7.1;4.4;;;;;;;26.09;49.06348;942.2159;;;;
2023/05/26 11:02:45;;;;;;;5.4;4.3;;;;;;;24.53;56.1416;942.2823;;;;
2023/05/26 11:05:14;;;;;;;5.8;4.5;;;;;;;23.95;56.76367;942.2539;;;;
2023/05/26 11:07:43;;;;;;;4.7;4.3;;;;;;;23.84;59.89063;942.2733;;;;
2023/05/26 11:10:11;;;;;;;5.9;4.7;;;;;;;23.26;60.15527;942.2261;;;;
2023/05/26 11:12:37;;;;;;;5;4.5;;;;;;;23.1;57.41895;942.2213;;;;
2023/05/26 11:15:02;;;;;;;7.5;4.3;;;;;;;23.34;60.86035;942.2542;;;;
2023/05/26 11:17:30;;;;;;;5.2;4.7;;;;;;;23.82;58.14844;942.2011;;;;
2023/05/26 11:19:55;;;;;;;5.2;4.1;;;;;;;24.44;55.15234;942.2029;;;;
2023/05/26 11:22:23;;;;;;;7.4;5;;;;;;;24.36;57.24121;942.2209;;;;
2023/05/26 11:24:49;;;;;;;6.1;4.4;;;;;;;24.59;55.98438;942.158;;;;
2023/05/26 11:27:16;;;;;;;5.7;4.7;;;;;;;24.44;58.12207;942.1008;;;;
2023/05/26 11:29:41;;;;;;;5.4;4.9;;;;;;;24.33;59.58203;942.0697;;;;
2023/05/26 11:32:06;;;;;;;5.1;4.2;;;;;;;24.32;57.62305;942.0761;;;;
2023/05/26 11:34:31;;;;;;;6;4.4;;;;;;;24.29;56.85352;942.0168;;;;
2023/05/26 11:36:58;;;;;;;5.8;5.2;;;;;;;24.29;56.02832;942.0323;;;;
2023/05/26 11:39:25;;;;;;;5.7;4.9;;;;;;;23.58;56.16406;941.971;;;;
2023/05/26 11:41:50;;;;;;;5.8;5;;;;;;;23.66;59.8916;941.9684;;;;
2023/05/26 11:44:19;;;;;;;5.9;4.5;;;;;;;24.31;56.24316;941.9918;;;;
2023/05/26 11:46:44;;;;;;;6.8;4.8;;;;;;;24.65;56.27441;942.0273;;;;
2023/05/26 11:49:13;;;;;;;9.4;5.2;;;;;;;24.33;57.44922;941.9363;;;;
2023/05/26 11:51:38;;;;;;;5.7;4.5;;;;;;;24.11;58.25684;941.9633;;;;
2023/05/26 11:54:08;;;;;;;5.8;4.3;;;;;;;24.72;55.0332;941.8948;;;;
2023/05/26 11:56:28;;;;;;;5.5;4.9;;;;;;;24.88;55.91504;941.9124;;;;
2023/05/26 11:58:54;;;;;;;4.8;4.4;;;;;;;25.31;53.16992;941.8869;;;;
2023/05/26 12:01:19;;;;;;;6.4;4.5;;;;;;;25.36;53.4707;941.9008;;;;
2023/05/26 12:03:46;;;;;;;6.2;4.4;;;;;;;24.87;56.53906;941.851;;;;
2023/05/26 12:06:13;;;;;;;4.6;4.1;;;;;;;24.69;56.91699;941.866;;;;
2023/05/26 12:08:38;;;;;;;4.8;4.2;;;;;;;25.17;52.97656;941.8173;;;;
2023/05/26 12:11:04;;;;;;;8;4.4;;;;;;;25.53;51.19922;941.7589;;;;
2023/05/26 12:13:29;;;;;;;6.5;4.1;;;;;;;24.59;54.86523;941.7744;;;;
2023/05/26 12:15:57;;;;;;;6.2;4.1;;;;;;;24.55;56.15625;941.7327;;;;
2023/05/26 12:18:22;;;;;;;5.3;4.2;;;;;;;25.09;51.5625;941.7375;;;;
2023/05/26 12:20:47;;;;;;;6.3;4.6;;;;;;;24.5;54.19238;941.7079;;;;
2023/05/26 12:23:13;;;;;;;8.6;4.8;;;;;;;24.2;56.05371;941.6694;;;;
2023/05/26 12:25:38;;;;;;;6.4;4.4;;;;;;;23.73;55.67578;941.6531;;;;
2023/05/26 12:28:06;;;;;;;4.9;4.3;;;;;;;23.95;57.22266;941.6908;;;;
2023/05/26 12:30:33;;;;;;;5.4;3.9;;;;;;;24.48;55.39355;941.645;;;;
2023/05/26 12:33:02;;;;;;;6.6;4.2;;;;;;;24.58;55.41797;941.7175;;;;
2023/05/26 12:35:31;;;;;;;4.4;4;;;;;;;24.69;53.81543;941.6631;;;;
2023/05/26 12:37:56;;;;;;;4.6;4.1;;;;;;;24.83;54.7627;941.6895;;;;
2023/05/26 12:40:24;;;;;;;6.7;4.5;;;;;;;25.11;52.21484;941.5947;;;;
2023/05/26 12:42:52;;;;;;;4.8;4.3;;;;;;;25.08;55.56152;941.574;;;;
2023/05/26 12:45:17;;;;;;;6.2;4.2;;;;;;;24.73;56.30859;941.5744;;;;
2023/05/26 12:47:46;;;;;;;5;4;;;;;;;25.21;52.08301;941.5223;;;;
2023/05/26 12:50:11;;;;;;;5.6;4.1;;;;;;;25.5;50.32129;941.5162;;;;
2023/05/26 12:52:37;;;;;;;5.5;3.7;;;;;;;25.88;49.21875;941.5164;;;;
2023/05/26 12:55:03;;;;;;;4.7;3.7;;;;;;;26.08;48.10449;941.467;;;;
2023/05/26 12:57:32;;;;;;;6.2;4.3;;;;;;;25.44;51.49512;941.5162;;;;
2023/05/26 12:59:59;;;;;;;5;4.3;;;;;;;24.75;54.96582;941.5043;;;;
2023/05/26 13:02:24;;;;;;;4.2;3.8;;;;;;;25.06;51.54688;941.5586;;;;
2023/05/26 13:04:50;;;;;;;5.8;4.1;;;;;;;25.19;50.44043;941.5279;;;;
2023/05/26 13:07:15;;;;;;;6.7;4.4;;;;;;;25.38;51.80957;941.6097;;;;
2023/05/26 13:09:43;;;;;;;4.9;4.4;;;;;;;25.46;51.45117;941.5562;;;;
2023/05/26 13:12:07;;;;;;;5.9;4.2;;;;;;;25.06;51.28711;941.5099;;;;
2023/05/26 13:14:35;;;;;;;9.8;4.4;;;;;;;24.99;52.1875;941.5327;;;;
2023/05/26 13:17:00;;;;;;;6.6;4.3;;;;;;;24.89;52.11719;941.5528;;;;
2023/05/26 13:19:27;;;;;;;10.7;4.5;;;;;;;25.34;47.99023;941.4827;;;;
2023/05/26 13:21:52;;;;;;;7.4;4.2;;;;;;;25.35;48.88867;941.5239;;;;
2023/05/26 13:24:17;;;;;;;6.2;4.3;;;;;;;25.46;47.93164;941.45;;;;
2023/05/26 13:26:43;;;;;;;8;4.5;;;;;;;25.63;48.74121;941.4064;;;;
2023/05/26 13:29:10;;;;;;;5.5;4.2;;;;;;;25.68;48.42773;941.3906;;;;
2023/05/26 13:31:34;;;;;;;6.6;4.5;;;;;;;25.53;48.93164;941.4227;;;;
2023/05/26 13:34:02;;;;;;;6.2;4.4;;;;;;;25.33;51.40137;941.3778;;;;
2023/05/26 13:36:27;;;;;;;6.4;4.3;;;;;;;24.34;52.72461;941.486;;;;
2023/05/26 13:38:54;;;;;;;7.6;4.4;;;;;;;24.74;50.99219;941.4387;;;;
2023/05/26 13:41:19;;;;;;;6.3;4.7;;;;;;;24.68;51.2793;941.3775;;;;
2023/05/26 13:43:45;;;;;;;6.4;3.8;;;;;;;24.76;49.87402;941.4168;;;;
2023/05/26 13:46:10;;;;;;;7.8;4.1;;;;;;;24.77;50.04004;941.4203;;;;
2023/05/26 13:48:38;;;;;;;7.2;4.3;;;;;;;25.02;49.67871;941.4026;;;;
2023/05/26 13:51:03;;;;;;;4.8;4;;;;;;;25.23;48.50879;941.3959;;;;
2023/05/26 13:53:30;;;;;;;6.4;4.6;;;;;;;25.19;50.00391;941.4341;;;;
2023/05/26 13:55:55;;;;;;;4.8;4.1;;;;;;;25.19;49.12988;941.4424;;;;
2023/05/26 13:58:20;;;;;;;7.2;4.4;;;;;;;25.21;47.65625;941.2844;;;;
2023/05/26 14:00:45;;;;;;;6.6;4.6;;;;;;;25.13;50.25586;941.3926;;;;
2023/05/26 14:03:14;;;;;;;9;5.1;;;;;;;24.6;52.03516;941.4044;;;;
2023/05/26 14:05:39;;;;;;;8.1;4.7;;;;;;;24.12;52.30957;941.4448;;;;
2023/05/26 14:08:06;;;;;;;5.7;4.3;;;;;;;24.02;53.32324;941.3416;;;;
2023/05/26 14:10:30;;;;;;;8.2;4.5;;;;;;;24.17;52.42188;941.4639;;;;
2023/05/26 14:12:57;;;;;;;6.3;4.8;;;;;;;24.11;52.66309;941.4328;;;;
2023/05/26 14:15:22;;;;;;;7.4;4.2;;;;;;;24.22;52.7334;941.4508;;;;
2023/05/26 14:17:52;;;;;;;5.9;4.5;;;;;;;24.22;51.84961;941.4931;;;;
2023/05/26 14:20:18;;;;;;;8.3;4.8;;;;;;;24.29;49.90234;941.4537;;;;
2023/05/26 14:22:43;;;;;;;5.4;4.8;;;;;;;24.2;50.48145;941.5225;;;;
2023/05/26 14:25:17;;;;;;;9.7;5.5;;;;;;;23.56;52.41992;941.4626;;;;
2023/05/26 14:27:46;;;;;;;8.5;5.4;;;;;;;23.22;53.63867;941.4445;;;;
2023/05/26 14:30:11;;;;;;;10.4;5.9;;;;;;;23.07;52.92676;941.4164;;;;